Time;durP1;ratioP1;P1;durP2;ratioP2;P2;SDS_P1;SDS_P2;PMS_P1;PMS_P2;Temp;Humidity;BMP_temperature;BMP_pressure;BME280_temperature;BME280_humidity;BME280_pressure;Samples;Min_cycle;Max_cycle;Signal;HPM_P1;HPM_P2
2021/01/13 00:00:34;;;;;;;2.90;1.60;;;8.00;58.60;;;;;;5097023;28;20445;-82
2021/01/13 00:03:01;;;;;;;5.20;1.40;;;8.10;58.70;;;;;;5096533;28;20510;-82
2021/01/13 00:05:28;;;;;;;5.17;1.70;;;8.30;58.70;;;;;;5096743;28;20443;-82
2021/01/13 00:07:55;;;;;;;5.10;1.77;;;8.40;57.90;;;;;;5119680;27;20443;-82
2021/01/13 00:10:24;;;;;;;8.20;1.63;;;8.50;58.00;;;;;;5139128;27;20558;-80
2021/01/13 00:12:51;;;;;;;5.93;1.60;;;8.70;57.70;;;;;;5138413;27;20489;-80
2021/01/13 00:15:19;;;;;;;3.87;1.20;;;8.50;57.70;;;;;;5124906;27;20440;-80
2021/01/13 00:17:46;;;;;;;7.37;2.00;;;8.50;58.20;;;;;;5116472;28;20444;-80
2021/01/13 00:20:14;;;;;;;4.83;1.50;;;8.50;57.70;;;;;;5117248;28;20440;-79
2021/01/13 00:22:40;;;;;;;7.97;1.67;;;8.30;58.10;;;;;;5116540;28;20467;-79
2021/01/13 00:25:08;;;;;;;7.73;1.70;;;8.20;58.90;;;;;;5110579;27;20482;-79
2021/01/13 00:27:35;;;;;;;12.07;1.60;;;8.60;58.00;;;;;;5116722;28;20481;-80
2021/01/13 00:30:04;;;;;;;3.80;1.33;;;8.50;57.60;;;;;;5118132;28;20463;-80
2021/01/13 00:32:33;;;;;;;5.80;1.80;;;8.50;57.90;;;;;;5119200;28;20536;-80
2021/01/13 00:35:00;;;;;;;7.20;1.43;;;8.60;57.80;;;;;;5118102;28;20447;-79
2021/01/13 00:37:27;;;;;;;5.73;1.43;;;8.30;57.60;;;;;;5117614;28;20490;-82
2021/01/13 00:39:54;;;;;;;8.17;1.53;;;8.40;57.90;;;;;;5116825;28;20461;-79
2021/01/13 00:42:22;;;;;;;5.33;1.70;;;8.30;58.00;;;;;;5115703;28;20455;-80
2021/01/13 00:44:49;;;;;;;8.93;1.63;;;8.40;57.70;;;;;;5110603;28;20455;-80
2021/01/13 00:47:16;;;;;;;9.47;2.00;;;8.20;57.80;;;;;;5116504;28;20469;-79
2021/01/13 00:49:45;;;;;;;4.50;1.40;;;8.20;58.00;;;;;;5116904;28;20499;-79
2021/01/13 00:52:12;;;;;;;7.47;1.73;;;8.00;58.10;;;;;;5116541;28;20471;-80
2021/01/13 00:54:39;;;;;;;13.87;2.07;;;8.00;58.40;;;;;;5117232;28;20466;-79
2021/01/13 00:57:06;;;;;;;6.97;1.70;;;8.00;58.30;;;;;;5117789;28;20440;-80
2021/01/13 00:59:33;;;;;;;5.50;1.43;;;8.00;58.50;;;;;;5116814;28;20428;-80
2021/01/13 01:02:00;;;;;;;11.90;2.23;;;8.00;58.20;;;;;;5122704;28;20524;-80
2021/01/13 01:04:28;;;;;;;5.90;1.30;;;8.00;58.30;;;;;;5123971;28;20456;-80
2021/01/13 01:06:56;;;;;;;13.60;1.90;;;7.90;58.30;;;;;;5118945;28;20462;-80
2021/01/13 01:09:23;;;;;;;9.23;2.47;;;8.00;58.50;;;;;;5117970;28;20452;-79
2021/01/13 01:11:50;;;;;;;9.07;1.97;;;7.90;58.50;;;;;;5117844;28;20435;-79
2021/01/13 01:14:17;;;;;;;4.83;1.93;;;7.80;58.40;;;;;;5118859;28;20435;-79
2021/01/13 01:16:44;;;;;;;11.73;1.90;;;7.90;58.60;;;;;;5119119;28;20484;-79
2021/01/13 01:19:12;;;;;;;9.20;1.83;;;7.90;58.50;;;;;;5116990;28;20946;-79
2021/01/13 01:21:39;;;;;;;6.37;1.50;;;7.90;58.70;;;;;;5117220;28;20435;-79
2021/01/13 01:24:08;;;;;;;5.53;1.53;;;7.90;58.90;;;;;;5114573;28;20436;-79
2021/01/13 01:26:45;;;;;;;11.00;1.97;;;7.70;58.90;;;;;;5117610;28;20444;-79
2021/01/13 01:29:12;;;;;;;14.13;1.83;;;7.70;59.00;;;;;;5116628;28;20477;-79
2021/01/13 01:31:39;;;;;;;12.13;1.90;;;7.70;59.20;;;;;;5117335;28;20440;-79
2021/01/13 01:34:06;;;;;;;5.17;1.73;;;7.80;59.00;;;;;;5116566;28;20435;-79
2021/01/13 01:36:33;;;;;;;8.27;1.90;;;7.80;59.00;;;;;;5113398;27;20452;-79
2021/01/13 01:39:01;;;;;;;11.83;1.87;;;8.20;58.30;;;;;;5117059;28;20471;-79
2021/01/13 01:41:29;;;;;;;6.37;1.77;;;8.10;58.10;;;;;;5116607;28;20444;-79
2021/01/13 01:43:56;;;;;;;10.00;1.70;;;8.00;58.60;;;;;;5116609;28;20460;-79
2021/01/13 01:46:23;;;;;;;6.10;1.23;;;8.00;59.10;;;;;;5117082;28;20436;-79
2021/01/13 01:48:52;;;;;;;6.70;1.70;;;7.90;59.60;;;;;;5115830;27;20507;-79
2021/01/13 01:51:23;;;;;;;8.43;1.70;;;8.10;59.30;;;;;;5116326;28;20472;-79
2021/01/13 01:54:08;;;;;;;8.20;1.60;;;8.00;59.60;;;;;;5116098;28;20459;-79
2021/01/13 01:56:37;;;;;;;7.13;1.50;;;7.90;59.80;;;;;;5117863;28;20451;-79
2021/01/13 01:59:05;;;;;;;6.93;1.33;;;7.80;60.00;;;;;;5120442;28;20448;-79
2021/01/13 02:01:34;;;;;;;6.70;1.13;;;7.70;60.10;;;;;;5120662;27;20440;-79
2021/01/13 02:04:06;;;;;;;7.03;1.93;;;7.80;59.90;;;;;;5119433;28;20451;-79
2021/01/13 02:06:34;;;;;;;5.47;1.53;;;7.80;59.90;;;;;;5119603;28;20436;-79
2021/01/13 02:09:01;;;;;;;12.20;1.60;;;7.80;59.60;;;;;;5120022;28;20443;-79
2021/01/13 02:11:28;;;;;;;5.77;1.40;;;7.90;59.70;;;;;;5117020;28;20471;-81
2021/01/13 02:13:56;;;;;;;10.70;1.47;;;7.90;59.60;;;;;;5102530;28;20441;-79
2021/01/13 02:16:23;;;;;;;7.30;1.30;;;7.80;59.60;;;;;;5104409;28;20440;-79
2021/01/13 02:18:50;;;;;;;4.53;1.07;;;7.70;59.90;;;;;;5101950;28;20449;-79
2021/01/13 02:21:18;;;;;;;4.13;1.10;;;7.60;59.90;;;;;;5099126;27;20436;-79
2021/01/13 02:23:46;;;;;;;4.10;1.30;;;7.70;59.80;;;;;;5098616;28;20468;-79
2021/01/13 02:26:50;;;;;;;5.87;1.63;;;7.70;59.80;;;;;;5098871;28;20441;-79
2021/01/13 02:29:25;;;;;;;3.87;1.10;;;7.60;59.90;;;;;;5087705;28;20435;-79
2021/01/13 02:32:11;;;;;;;6.83;1.57;;;7.60;60.30;;;;;;5098465;28;20482;-79
2021/01/13 02:34:59;;;;;;;7.00;1.40;;;7.70;59.80;;;;;;5098409;28;20444;-79
2021/01/13 02:37:43;;;;;;;7.00;1.50;;;7.70;60.10;;;;;;5098687;28;20473;-79
2021/01/13 02:40:19;;;;;;;6.10;1.50;;;7.70;60.00;;;;;;5098450;28;20947;-79
2021/01/13 02:43:02;;;;;;;6.00;1.30;;;7.70;60.20;;;;;;5098122;28;20517;-79
2021/01/13 02:45:30;;;;;;;10.07;1.27;;;7.80;59.80;;;;;;5097906;28;20437;-79
2021/01/13 02:48:05;;;;;;;6.63;1.10;;;7.80;59.70;;;;;;5094026;28;20465;-79
2021/01/13 02:50:33;;;;;;;9.60;1.73;;;7.90;59.60;;;;;;5097996;28;20471;-79
2021/01/13 02:53:29;;;;;;;5.33;1.10;;;7.80;59.60;;;;;;5098798;28;20460;-79
2021/01/13 02:56:05;;;;;;;5.83;1.40;;;7.80;60.20;;;;;;5097820;28;20473;-79
2021/01/13 02:58:36;;;;;;;13.43;1.57;;;7.90;60.10;;;;;;5097977;28;20888;-79
2021/01/13 03:01:06;;;;;;;7.03;1.47;;;7.80;60.00;;;;;;5097979;28;20441;-79
2021/01/13 03:03:34;;;;;;;8.33;1.77;;;7.70;60.60;;;;;;5097459;28;20492;-79
2021/01/13 03:06:04;;;;;;;2.60;1.27;;;7.70;60.70;;;;;;5097985;28;20501;-79
2021/01/13 03:08:44;;;;;;;6.03;1.33;;;7.70;60.90;;;;;;5097469;28;20478;-79
2021/01/13 03:11:16;;;;;;;5.43;1.30;;;7.70;61.10;;;;;;5097654;28;20468;-79
2021/01/13 03:13:44;;;;;;;2.43;1.30;;;7.80;60.80;;;;;;5097520;28;20522;-79
2021/01/13 03:16:13;;;;;;;6.97;1.43;;;7.80;60.70;;;;;;5097569;28;20433;-79
2021/01/13 03:18:57;;;;;;;3.80;1.17;;;7.70;61.10;;;;;;5097277;28;20536;-79
2021/01/13 03:21:27;;;;;;;2.83;1.60;;;7.90;61.50;;;;;;5097314;28;20466;-79
2021/01/13 03:24:04;;;;;;;5.77;1.20;;;8.30;60.80;;;;;;5097625;28;20518;-79
2021/01/13 03:26:34;;;;;;;9.43;1.40;;;8.80;60.00;;;;;;5097439;28;20501;-79
2021/01/13 03:29:01;;;;;;;6.97;2.53;;;9.10;59.40;;;;;;5097533;28;20448;-79
2021/01/13 03:31:30;;;;;;;5.83;1.10;;;9.20;59.50;;;;;;5101612;28;20471;-79
2021/01/13 03:34:29;;;;;;;4.17;1.10;;;9.50;58.80;;;;;;5117334;28;20456;-79
2021/01/13 03:37:03;;;;;;;5.40;1.20;;;9.60;58.30;;;;;;5112332;28;20480;-79
2021/01/13 03:39:33;;;;;;;10.60;1.70;;;8.90;59.40;;;;;;5117484;28;20516;-79
2021/01/13 03:42:07;;;;;;;9.23;1.17;;;9.00;59.20;;;;;;5116612;28;20456;-79
2021/01/13 03:44:34;;;;;;;6.63;1.30;;;8.80;59.80;;;;;;5116997;28;20448;-79
2021/01/13 03:47:38;;;;;;;6.97;1.17;;;8.40;61.10;;;;;;5117666;27;20444;-79
2021/01/13 03:50:12;;;;;;;3.20;1.20;;;8.30;61.40;;;;;;5092226;28;20471;-79
2021/01/13 03:52:40;;;;;;;5.87;1.37;;;8.10;61.90;;;;;;5117385;28;20481;-79
2021/01/13 03:55:07;;;;;;;5.07;0.90;;;8.00;62.10;;;;;;5117106;28;20477;-79
2021/01/13 03:57:46;;;;;;;4.03;1.30;;;7.90;62.80;;;;;;5116633;27;20447;-79
2021/01/13 04:00:14;;;;;;;3.93;1.10;;;7.80;63.10;;;;;;5113570;27;20467;-79
2021/01/13 04:02:50;;;;;;;6.87;1.33;;;7.90;62.80;;;;;;5110100;28;20490;-79
2021/01/13 04:05:18;;;;;;;4.53;1.00;;;7.90;62.70;;;;;;5110135;28;20436;-79
2021/01/13 04:07:45;;;;;;;3.90;1.07;;;7.80;62.80;;;;;;5116817;28;20440;-79
2021/01/13 04:10:13;;;;;;;4.17;1.10;;;7.80;63.60;;;;;;5116788;28;20479;-79
2021/01/13 04:12:52;;;;;;;5.17;1.20;;;7.70;63.20;;;;;;5116713;28;20491;-79
2021/01/13 04:15:19;;;;;;;4.60;0.97;;;7.60;63.50;;;;;;5115247;28;20440;-79
2021/01/13 04:17:48;;;;;;;2.30;1.23;;;7.70;63.30;;;;;;5096625;28;20461;-79
2021/01/13 04:20:16;;;;;;;3.53;1.00;;;7.80;63.20;;;;;;5095820;28;20460;-79
2021/01/13 04:22:43;;;;;;;2.60;1.20;;;7.80;63.40;;;;;;5096423;28;20528;-79
2021/01/13 04:25:11;;;;;;;3.90;0.90;;;7.70;63.30;;;;;;5097032;28;20445;-78
2021/01/13 04:27:38;;;;;;;3.60;1.13;;;7.70;63.30;;;;;;5096572;28;20432;-79
2021/01/13 04:30:06;;;;;;;2.40;0.90;;;7.70;63.40;;;;;;5096785;28;20534;-79
2021/01/13 04:32:34;;;;;;;4.07;0.90;;;7.80;63.20;;;;;;5096270;28;20464;-79
2021/01/13 04:35:03;;;;;;;2.40;0.80;;;7.70;63.40;;;;;;5114230;28;20447;-79
2021/01/13 04:37:30;;;;;;;7.77;1.07;;;7.70;63.30;;;;;;5117113;28;21019;-79
2021/01/13 04:40:01;;;;;;;3.10;0.80;;;7.70;63.60;;;;;;5117191;28;20461;-79
2021/01/13 04:42:30;;;;;;;3.20;0.80;;;7.70;63.70;;;;;;5110598;28;20517;-79
2021/01/13 04:45:04;;;;;;;2.27;0.83;;;7.80;63.60;;;;;;5096699;28;20445;-79
2021/01/13 04:47:47;;;;;;;2.80;0.90;;;7.80;63.80;;;;;;5096155;28;20496;-79
2021/01/13 04:50:17;;;;;;;2.63;1.00;;;7.80;63.60;;;;;;5096771;28;20514;-79
2021/01/13 04:52:44;;;;;;;1.60;0.77;;;7.80;63.40;;;;;;5095944;28;20498;-79
2021/01/13 04:55:21;;;;;;;6.17;1.00;;;7.80;63.70;;;;;;5096966;28;20437;-79
2021/01/13 04:58:21;;;;;;;4.27;1.40;;;7.70;63.80;;;;;;5095888;28;20468;-79
2021/01/13 05:01:07;;;;;;;1.87;0.90;;;7.70;63.70;;;;;;5107025;28;20436;-79
2021/01/13 05:03:43;;;;;;;5.93;1.00;;;7.70;64.30;;;;;;5115840;27;20467;-79
2021/01/13 05:06:40;;;;;;;2.13;1.07;;;7.60;64.30;;;;;;5116180;28;20461;-79
2021/01/13 05:09:08;;;;;;;2.80;0.93;;;7.70;64.30;;;;;;5111578;28;20493;-79
2021/01/13 05:11:39;;;;;;;4.37;1.20;;;7.80;64.20;;;;;;5115319;28;20536;-79
2021/01/13 05:14:06;;;;;;;3.07;1.20;;;7.70;64.20;;;;;;5115702;28;20420;-79
2021/01/13 05:17:00;;;;;;;4.00;1.67;;;7.80;64.20;;;;;;5116045;28;20459;-79
2021/01/13 05:20:13;;;;;;;4.20;1.30;;;7.80;64.30;;;;;;5115770;28;20475;-79
2021/01/13 05:22:40;;;;;;;3.97;1.87;;;7.70;64.10;;;;;;5115667;28;20468;-79
2021/01/13 05:25:08;;;;;;;6.13;1.20;;;7.60;64.50;;;;;;5116501;28;20432;-79
2021/01/13 05:28:02;;;;;;;4.30;1.07;;;7.60;64.90;;;;;;5116957;28;20451;-78
2021/01/13 05:30:30;;;;;;;2.40;1.00;;;7.60;64.40;;;;;;5116512;28;20468;-79
2021/01/13 05:32:57;;;;;;;3.37;1.10;;;7.60;64.40;;;;;;5119297;28;20448;-79
2021/01/13 05:35:27;;;;;;;1.30;0.90;;;7.60;64.50;;;;;;5118900;28;20493;-79
2021/01/13 05:38:20;;;;;;;2.73;1.10;;;7.70;64.40;;;;;;5119659;28;20428;-79
2021/01/13 05:40:48;;;;;;;5.60;0.97;;;7.60;64.20;;;;;;5108522;28;20492;-79
2021/01/13 05:43:16;;;;;;;3.50;1.03;;;7.60;64.20;;;;;;5118808;28;20481;-78
2021/01/13 05:45:44;;;;;;;4.33;1.10;;;7.50;64.10;;;;;;5120002;28;20481;-78
2021/01/13 05:48:22;;;;;;;2.70;1.10;;;7.60;64.10;;;;;;5119962;28;20523;-79
2021/01/13 05:50:55;;;;;;;1.80;0.90;;;7.60;64.20;;;;;;5120250;28;20492;-79
2021/01/13 05:53:26;;;;;;;3.40;0.83;;;7.50;64.40;;;;;;5119475;28;20459;-79
2021/01/13 05:55:53;;;;;;;4.83;1.17;;;7.40;64.20;;;;;;5120039;28;20481;-79
2021/01/13 05:58:22;;;;;;;3.70;1.27;;;7.40;64.30;;;;;;5119725;28;20439;-79
2021/01/13 06:00:51;;;;;;;2.60;0.90;;;7.30;64.60;;;;;;5120147;28;20431;-79
2021/01/13 06:03:21;;;;;;;3.07;0.90;;;7.30;64.60;;;;;;5103345;28;20456;-78
2021/01/13 06:05:50;;;;;;;5.87;1.30;;;7.30;64.30;;;;;;5099615;28;20502;-79
2021/01/13 06:08:18;;;;;;;6.80;1.40;;;7.20;65.30;;;;;;5099283;28;20440;-79
2021/01/13 06:10:46;;;;;;;6.37;1.50;;;7.30;64.70;;;;;;5099494;28;20513;-79
2021/01/13 06:13:16;;;;;;;3.00;1.23;;;7.40;64.70;;;;;;5099575;28;20464;-79
2021/01/13 06:15:44;;;;;;;2.40;0.97;;;7.40;64.60;;;;;;5099450;28;20476;-79
2021/01/13 06:18:13;;;;;;;4.47;1.20;;;7.40;64.90;;;;;;5099265;28;20429;-79
2021/01/13 06:20:41;;;;;;;5.80;1.10;;;7.40;64.60;;;;;;5098779;28;20439;-79
2021/01/13 06:23:08;;;;;;;6.17;1.70;;;7.20;65.10;;;;;;5098670;28;20497;-79
2021/01/13 06:25:35;;;;;;;4.73;1.57;;;7.30;65.00;;;;;;5098565;28;20436;-79
2021/01/13 06:28:27;;;;;;;1.70;1.30;;;7.40;65.10;;;;;;5099151;28;20433;-79
2021/01/13 06:31:12;;;;;;;8.33;1.50;;;7.40;64.80;;;;;;5098593;28;20499;-79
2021/01/13 06:34:06;;;;;;;16.60;2.10;;;7.40;65.10;;;;;;5098783;28;20449;-79
2021/01/13 06:36:40;;;;;;;4.90;1.70;;;7.30;65.40;;;;;;5098590;28;20506;-79
2021/01/13 06:39:07;;;;;;;5.90;1.83;;;7.40;65.40;;;;;;5118542;28;20436;-79
2021/01/13 06:41:44;;;;;;;6.20;1.97;;;7.40;64.80;;;;;;5119027;28;20432;-79
2021/01/13 06:44:11;;;;;;;7.83;1.40;;;7.40;65.20;;;;;;5118999;28;20474;-79
2021/01/13 06:46:38;;;;;;;6.97;1.30;;;7.40;65.40;;;;;;5108547;28;20437;-79
2021/01/13 06:49:16;;;;;;;7.47;1.50;;;7.30;65.70;;;;;;5097487;28;20425;-79
2021/01/13 06:51:44;;;;;;;5.30;1.30;;;7.40;65.30;;;;;;5096453;28;20491;-79
2021/01/13 06:54:12;;;;;;;7.57;1.47;;;7.40;65.40;;;;;;5097539;28;20464;-79
2021/01/13 06:56:46;;;;;;;6.83;1.30;;;7.40;65.60;;;;;;5096516;28;20503;-79
2021/01/13 06:59:15;;;;;;;1.90;1.30;;;7.40;65.50;;;;;;5099103;28;20459;-79
2021/01/13 07:01:51;;;;;;;5.33;1.60;;;7.40;65.30;;;;;;5098066;28;20838;-79
2021/01/13 07:04:19;;;;;;;1.70;1.13;;;7.30;65.60;;;;;;5098625;28;20444;-79
2021/01/13 07:07:02;;;;;;;5.70;1.73;;;7.50;65.80;;;;;;5098564;28;20940;-79
2021/01/13 07:09:33;;;;;;;5.80;1.27;;;7.40;65.80;;;;;;5099269;28;20432;-79
2021/01/13 07:12:07;;;;;;;4.37;1.63;;;7.40;66.00;;;;;;5097910;28;20562;-79
2021/01/13 07:14:36;;;;;;;5.70;1.27;;;7.50;65.70;;;;;;5098754;27;20433;-79
2021/01/13 07:17:03;;;;;;;7.10;1.43;;;7.50;65.60;;;;;;5097011;28;20463;-79
2021/01/13 07:19:31;;;;;;;5.50;1.20;;;7.50;65.80;;;;;;5097534;28;20939;-79
2021/01/13 07:21:58;;;;;;;4.30;1.23;;;7.40;65.80;;;;;;5097334;28;20448;-79
2021/01/13 07:24:27;;;;;;;2.37;1.30;;;7.40;65.80;;;;;;5097927;28;20440;-79
2021/01/13 07:26:54;;;;;;;4.63;1.47;;;7.40;66.10;;;;;;5121833;28;20444;-79
2021/01/13 07:29:22;;;;;;;6.57;1.20;;;7.40;65.70;;;;;;5125231;28;20466;-79
2021/01/13 07:31:49;;;;;;;2.97;1.10;;;7.30;65.80;;;;;;5116398;28;20506;-79
2021/01/13 07:34:26;;;;;;;6.70;1.80;;;7.40;65.90;;;;;;5118620;28;20522;-79
2021/01/13 07:36:58;;;;;;;7.60;1.47;;;7.40;65.90;;;;;;5118631;28;20491;-79
2021/01/13 07:39:32;;;;;;;4.47;1.30;;;7.40;65.60;;;;;;5112487;28;20490;-79
2021/01/13 07:42:12;;;;;;;6.07;1.20;;;7.40;65.60;;;;;;5098058;28;20463;-79
2021/01/13 07:44:40;;;;;;;7.97;1.57;;;7.40;65.70;;;;;;5097702;28;20966;-79
2021/01/13 07:47:26;;;;;;;2.87;1.00;;;7.30;65.80;;;;;;5096204;28;20460;-79
2021/01/13 07:50:03;;;;;;;5.77;1.50;;;7.40;66.50;;;;;;5097020;28;20444;-79
2021/01/13 07:52:30;;;;;;;1.77;1.33;;;7.40;65.70;;;;;;5096811;28;20510;-79
2021/01/13 07:54:57;;;;;;;6.63;1.30;;;7.40;65.80;;;;;;5097085;28;20475;-79
2021/01/13 07:57:24;;;;;;;3.53;1.50;;;7.40;65.60;;;;;;5097435;28;20444;-79
2021/01/13 08:00:05;;;;;;;9.57;1.67;;;7.50;65.50;;;;;;5098635;28;20558;-78
2021/01/13 08:03:11;;;;;;;3.23;1.40;;;7.50;65.60;;;;;;5097413;28;21030;-79
2021/01/13 08:06:15;;;;;;;3.27;1.10;;;7.60;65.20;;;;;;5100240;28;20440;-79
2021/01/13 08:09:10;;;;;;;1.47;1.10;;;7.60;65.10;;;;;;5118550;28;20435;-79
2021/01/13 08:12:09;;;;;;;16.30;1.47;;;7.50;65.50;;;;;;5104560;28;20466;-79
2021/01/13 08:15:13;;;;;;;1.70;1.40;;;7.50;65.70;;;;;;5089499;28;20441;-79
2021/01/13 08:17:47;;;;;;;4.63;1.40;;;7.50;65.70;;;;;;5097713;28;20437;-79
2021/01/13 08:20:39;;;;;;;8.00;1.50;;;7.50;65.80;;;;;;5099905;28;20433;-78
2021/01/13 08:23:10;;;;;;;5.00;1.40;;;7.60;65.80;;;;;;5100549;28;20521;-78
2021/01/13 08:25:38;;;;;;;7.90;1.50;;;7.60;65.50;;;;;;5101726;28;20437;-78
2021/01/13 08:28:05;;;;;;;3.23;1.40;;;7.70;65.60;;;;;;5100946;28;20459;-78
2021/01/13 08:30:32;;;;;;;3.10;1.30;;;7.80;65.30;;;;;;5100431;28;20432;-78
2021/01/13 08:33:00;;;;;;;5.87;1.33;;;7.80;65.30;;;;;;5109646;28;20452;-78
2021/01/13 08:35:33;;;;;;;6.13;1.47;;;7.90;65.30;;;;;;5121527;28;20467;-79
2021/01/13 08:38:08;;;;;;;2.20;1.27;;;7.90;65.10;;;;;;5123020;28;20435;-78
2021/01/13 08:40:37;;;;;;;9.70;1.30;;;7.80;65.40;;;;;;5117061;28;20459;-78
2021/01/13 08:43:08;;;;;;;4.63;1.17;;;7.90;65.60;;;;;;5096841;28;20468;-78
2021/01/13 08:45:37;;;;;;;2.03;1.57;;;8.40;65.00;;;;;;5096857;28;20448;-78
2021/01/13 08:48:09;;;;;;;4.17;1.10;;;8.10;64.70;;;;;;5096877;28;20444;-77
2021/01/13 08:50:37;;;;;;;9.70;1.43;;;8.20;65.10;;;;;;5096308;28;20539;-77
2021/01/13 08:53:04;;;;;;;8.40;1.83;;;8.10;65.30;;;;;;5096180;28;20495;-79
2021/01/13 08:55:33;;;;;;;6.50;1.57;;;8.00;66.20;;;;;;5096472;28;20429;-79
2021/01/13 08:58:09;;;;;;;5.70;1.30;;;8.00;66.40;;;;;;5095972;28;20512;-78
2021/01/13 09:00:37;;;;;;;14.13;1.97;;;8.00;66.40;;;;;;5095687;28;20433;-78
2021/01/13 09:03:05;;;;;;;7.87;1.73;;;8.00;66.40;;;;;;5095486;28;20463;-78
2021/01/13 09:05:33;;;;;;;9.33;2.20;;;8.00;66.60;;;;;;5095954;28;20437;-78
2021/01/13 09:08:01;;;;;;;7.73;1.60;;;8.00;66.60;;;;;;5095798;28;20459;-78
2021/01/13 09:10:46;;;;;;;6.60;1.37;;;8.10;66.70;;;;;;5095989;28;20440;-77
2021/01/13 09:13:31;;;;;;;5.03;1.70;;;8.00;66.80;;;;;;5095716;28;20453;-78
2021/01/13 09:16:01;;;;;;;4.87;1.90;;;8.20;66.50;;;;;;5095135;28;20433;-78
2021/01/13 09:18:28;;;;;;;9.83;1.87;;;8.10;66.70;;;;;;5095207;28;20440;-78
2021/01/13 09:20:55;;;;;;;11.10;2.40;;;8.10;66.60;;;;;;5095253;28;20499;-78
2021/01/13 09:23:22;;;;;;;6.87;1.60;;;8.10;66.60;;;;;;5094648;28;20550;-78
2021/01/13 09:25:52;;;;;;;5.20;1.50;;;8.10;66.60;;;;;;5096083;28;20436;-78
2021/01/13 09:28:19;;;;;;;6.70;1.77;;;8.30;66.40;;;;;;5095553;28;20440;-79
2021/01/13 09:30:46;;;;;;;11.33;1.60;;;8.30;65.60;;;;;;5095664;28;20440;-78
2021/01/13 09:33:14;;;;;;;4.43;1.70;;;8.40;65.80;;;;;;5095613;28;20495;-79
2021/01/13 09:35:42;;;;;;;11.23;1.90;;;8.30;65.60;;;;;;5095907;28;20478;-78
2021/01/13 09:38:10;;;;;;;6.00;1.50;;;8.30;65.70;;;;;;5095844;28;20463;-79
2021/01/13 09:41:02;;;;;;;14.70;2.07;;;8.30;65.70;;;;;;5096113;28;20513;-79
2021/01/13 09:43:32;;;;;;;6.70;1.47;;;8.50;65.20;;;;;;5080673;28;20478;-78
2021/01/13 09:46:00;;;;;;;5.90;1.50;;;8.70;64.60;;;;;;5095527;28;20429;-78
2021/01/13 09:48:28;;;;;;;11.40;1.77;;;8.90;64.00;;;;;;5095572;28;20966;-78
2021/01/13 09:51:03;;;;;;;8.13;1.90;;;9.00;63.60;;;;;;5096220;28;20432;-78
2021/01/13 09:53:34;;;;;;;7.63;1.87;;;9.10;63.50;;;;;;5112359;28;20443;-78
2021/01/13 09:56:07;;;;;;;6.70;1.87;;;9.20;63.30;;;;;;5116199;28;20477;-77
2021/01/13 09:58:39;;;;;;;9.60;2.40;;;9.40;63.20;;;;;;5116378;28;20457;-78
2021/01/13 10:01:14;;;;;;;8.00;1.70;;;9.60;62.20;;;;;;5108913;28;20496;-77
2021/01/13 10:03:42;;;;;;;10.17;1.67;;;9.90;61.80;;;;;;5094804;28;20494;-78
2021/01/13 10:06:16;;;;;;;10.33;1.70;;;10.00;60.10;;;;;;5095062;28;20429;-78
2021/01/13 10:09:08;;;;;;;7.80;1.93;;;9.80;61.60;;;;;;5095007;28;20520;-79
2021/01/13 10:11:37;;;;;;;14.10;2.50;;;10.10;60.30;;;;;;5095382;28;20436;-79
2021/01/13 10:14:05;;;;;;;9.17;2.10;;;10.00;60.00;;;;;;5102538;28;20447;-79
2021/01/13 10:16:32;;;;;;;12.90;2.33;;;9.80;61.60;;;;;;5136297;28;20503;-78
2021/01/13 10:19:01;;;;;;;11.43;1.97;;;9.70;61.50;;;;;;5119738;27;20441;-78
2021/01/13 10:21:34;;;;;;;9.50;1.80;;;9.90;61.50;;;;;;5096581;28;20472;-77
2021/01/13 10:24:03;;;;;;;6.20;1.30;;;9.90;60.80;;;;;;5131656;27;20451;-78
2021/01/13 10:26:34;;;;;;;15.43;2.80;;;9.90;60.80;;;;;;5137881;27;20427;-77
2021/01/13 10:29:02;;;;;;;9.93;1.93;;;9.70;61.00;;;;;;5108332;27;20514;-78
2021/01/13 10:31:29;;;;;;;8.03;1.73;;;10.00;59.90;;;;;;5119897;27;20432;-78
2021/01/13 10:33:57;;;;;;;7.83;2.00;;;10.50;59.00;;;;;;5116738;28;20835;-78
2021/01/13 10:36:38;;;;;;;5.87;1.80;;;10.80;58.10;;;;;;5116676;28;20796;-79
2021/01/13 10:39:07;;;;;;;7.33;2.00;;;11.00;57.50;;;;;;5119800;28;20447;-78
2021/01/13 10:41:35;;;;;;;4.97;1.50;;;11.20;56.70;;;;;;5118432;27;20467;-78
2021/01/13 10:44:05;;;;;;;4.20;1.60;;;11.40;56.10;;;;;;5118280;28;20436;-79
2021/01/13 10:46:51;;;;;;;10.80;2.27;;;11.90;55.50;;;;;;5102235;28;20486;-79
2021/01/13 10:49:20;;;;;;;11.17;2.17;;;12.40;54.50;;;;;;5128173;27;20431;-78
2021/01/13 10:51:48;;;;;;;4.33;1.40;;;12.50;53.70;;;;;;5141146;27;20460;-78
2021/01/13 10:54:19;;;;;;;5.50;2.00;;;12.60;53.40;;;;;;5128530;27;20459;-79
2021/01/13 10:56:47;;;;;;;4.50;1.40;;;12.90;52.20;;;;;;5102422;28;20428;-80
2021/01/13 10:59:16;;;;;;;8.67;1.57;;;13.20;51.80;;;;;;5101219;28;20436;-79
2021/01/13 11:01:48;;;;;;;5.27;1.37;;;13.30;51.30;;;;;;5102169;28;20563;-78
2021/01/13 11:04:39;;;;;;;4.57;1.40;;;13.30;51.20;;;;;;5102010;28;20468;-78
2021/01/13 11:07:10;;;;;;;8.13;1.47;;;13.40;51.00;;;;;;5089831;28;20436;-78
2021/01/13 11:09:39;;;;;;;5.90;1.70;;;13.60;50.60;;;;;;5100808;28;20429;-78
2021/01/13 11:12:07;;;;;;;5.17;1.43;;;13.40;50.30;;;;;;5101022;28;20449;-78
2021/01/13 11:14:40;;;;;;;6.17;1.50;;;13.50;50.70;;;;;;5100924;28;20433;-78
2021/01/13 11:17:09;;;;;;;4.73;2.17;;;13.80;50.00;;;;;;5100567;28;20433;-79
2021/01/13 11:19:38;;;;;;;5.43;1.50;;;13.60;50.00;;;;;;5100426;28;20432;-78
2021/01/13 11:22:05;;;;;;;4.40;1.40;;;13.50;50.70;;;;;;5120352;27;20483;-78
2021/01/13 11:24:43;;;;;;;7.27;1.80;;;14.20;49.80;;;;;;5143387;27;20438;-78
2021/01/13 11:27:12;;;;;;;7.93;2.00;;;13.90;48.30;;;;;;5143114;27;20439;-78
2021/01/13 11:29:42;;;;;;;9.93;2.37;;;13.40;50.10;;;;;;5122562;27;20437;-78
2021/01/13 11:32:13;;;;;;;5.87;1.70;;;13.60;50.00;;;;;;5096369;28;20457;-79
2021/01/13 11:34:40;;;;;;;9.27;1.90;;;13.60;51.10;;;;;;5101294;28;20433;-79
2021/01/13 11:37:17;;;;;;;8.20;2.30;;;14.50;48.60;;;;;;5101676;28;20457;-80
2021/01/13 11:39:46;;;;;;;4.73;1.77;;;16.90;49.70;;;;;;5124301;27;20554;-79
2021/01/13 11:42:28;;;;;;;9.70;2.30;;;16.00;46.30;;;;;;5145243;27;20501;-80
2021/01/13 11:45:11;;;;;;;10.03;2.00;;;16.10;45.10;;;;;;5143955;27;20438;-79
2021/01/13 11:47:41;;;;;;;10.63;2.07;;;17.50;43.30;;;;;;5113539;28;20424;-80
2021/01/13 11:50:12;;;;;;;4.97;2.00;;;16.60;44.20;;;;;;5116849;28;20461;-80
2021/01/13 11:52:41;;;;;;;7.10;1.60;;;17.50;43.40;;;;;;5103870;28;20459;-80
2021/01/13 11:55:09;;;;;;;4.60;1.83;;;18.10;41.40;;;;;;5118940;28;20447;-80
2021/01/13 11:57:36;;;;;;;6.67;1.57;;;16.60;41.60;;;;;;5103357;28;20463;-78
2021/01/13 12:00:15;;;;;;;11.13;1.67;;;14.80;45.30;;;;;;5098892;28;20441;-78
2021/01/13 12:02:46;;;;;;;6.03;1.50;;;14.00;48.20;;;;;;5106100;28;20520;-81
2021/01/13 12:05:23;;;;;;;6.37;2.17;;;13.90;49.30;;;;;;5119055;28;20439;-80
2021/01/13 12:08:00;;;;;;;5.50;1.80;;;13.40;50.20;;;;;;5110624;28;20436;-79
2021/01/13 12:10:34;;;;;;;7.53;1.97;;;13.90;50.10;;;;;;5108892;28;20444;-79
2021/01/13 12:13:15;;;;;;;7.90;1.70;;;13.30;49.70;;;;;;5116106;28;20489;-80
2021/01/13 12:15:56;;;;;;;11.00;2.00;;;13.00;50.60;;;;;;5102554;28;20523;-79
2021/01/13 12:18:25;;;;;;;9.20;1.70;;;13.10;50.50;;;;;;5111053;28;20428;-79
2021/01/13 12:20:53;;;;;;;6.63;1.57;;;16.10;46.70;;;;;;5102118;27;20524;-79
2021/01/13 12:23:22;;;;;;;7.27;2.20;;;17.80;43.20;;;;;;5118014;27;20532;-79
2021/01/13 12:25:49;;;;;;;6.93;2.30;;;19.70;40.30;;;;;;5106148;28;20444;-77
2021/01/13 12:28:16;;;;;;;10.97;2.10;;;20.00;38.80;;;;;;5112704;28;20436;-78
2021/01/13 12:30:57;;;;;;;5.37;1.50;;;20.30;36.30;;;;;;5112289;28;20432;-77
2021/01/13 12:33:24;;;;;;;9.33;2.00;;;18.50;38.20;;;;;;5095053;28;20509;-78
2021/01/13 12:35:51;;;;;;;6.40;1.80;;;20.20;38.00;;;;;;5092889;28;20399;-77
2021/01/13 12:38:17;;;;;;;7.63;2.10;;;18.80;35.60;;;;;;5098934;28;20440;-78
2021/01/13 12:40:44;;;;;;;5.07;1.60;;;19.30;38.00;;;;;;5099086;27;20452;-78
2021/01/13 12:43:13;;;;;;;5.23;1.70;;;21.00;35.60;;;;;;5108283;28;20998;-80
2021/01/13 12:45:40;;;;;;;4.40;1.93;;;18.30;36.50;;;;;;5109666;28;20425;-78
2021/01/13 12:48:08;;;;;;;7.80;2.30;;;19.80;36.80;;;;;;5111965;28;20428;-79
2021/01/13 12:50:35;;;;;;;4.30;1.53;;;19.40;36.60;;;;;;5110688;28;20471;-78
2021/01/13 12:53:02;;;;;;;15.63;2.20;;;17.70;38.10;;;;;;5111607;28;20467;-78
2021/01/13 12:55:29;;;;;;;4.87;2.13;;;19.30;38.00;;;;;;5112418;28;20456;-78
2021/01/13 12:57:56;;;;;;;3.30;1.40;;;18.30;37.50;;;;;;5109656;28;20468;-77
2021/01/13 13:00:24;;;;;;;7.40;1.90;;;18.20;37.20;;;;;;5111749;28;20492;-78
2021/01/13 13:02:51;;;;;;;13.77;2.20;;;17.10;39.20;;;;;;5112467;28;20516;-80
2021/01/13 13:05:19;;;;;;;9.23;1.87;;;15.40;42.30;;;;;;5117143;28;20545;-80
2021/01/13 13:07:46;;;;;;;8.53;2.40;;;15.00;44.60;;;;;;5114400;28;20443;-80
2021/01/13 13:10:13;;;;;;;7.87;2.30;;;14.10;45.70;;;;;;5113714;28;20455;-80
2021/01/13 13:12:41;;;;;;;7.17;2.00;;;13.30;48.40;;;;;;5116287;28;20440;-80
2021/01/13 13:15:08;;;;;;;10.07;2.27;;;13.40;49.90;;;;;;5115897;28;20444;-82
2021/01/13 13:17:38;;;;;;;11.60;2.10;;;13.00;50.20;;;;;;5113551;28;20576;-81